sensor_id;sensor_type;location;lat;lon;timestamp;P1;durP1;ratioP1;P2;durP2;ratioP2
32082;SDS011;18597;48.328;7.932;2024-03-22T00:01:52;8.17;;;7.43;;
32082;SDS011;18597;48.328;7.932;2024-03-22T00:04:19;12.60;;;8.00;;
32082;SDS011;18597;48.328;7.932;2024-03-22T00:06:45;9.87;;;7.47;;
32082;SDS011;18597;48.328;7.932;2024-03-22T00:09:13;7.87;;;7.10;;
32082;SDS011;18597;48.328;7.932;2024-03-22T00:11:40;6.83;;;6.17;;
32082;SDS011;18597;48.328;7.932;2024-03-22T00:14:06;8.60;;;6.93;;
32082;SDS011;18597;48.328;7.932;2024-03-22T00:16:33;9.53;;;7.30;;
32082;SDS011;18597;48.328;7.932;2024-03-22T00:18:59;9.00;;;8.03;;
32082;SDS011;18597;48.328;7.932;2024-03-22T00:21:26;9.50;;;6.47;;
32082;SDS011;18597;48.328;7.932;2024-03-22T00:23:53;8.90;;;8.00;;
32082;SDS011;18597;48.328;7.932;2024-03-22T00:26:19;7.70;;;7.00;;
32082;SDS011;18597;48.328;7.932;2024-03-22T00:28:45;9.13;;;6.43;;
32082;SDS011;18597;48.328;7.932;2024-03-22T00:31:10;17.40;;;7.03;;
32082;SDS011;18597;48.328;7.932;2024-03-22T00:33:36;7.60;;;6.90;;
32082;SDS011;18597;48.328;7.932;2024-03-22T00:36:02;14.27;;;7.37;;
32082;SDS011;18597;48.328;7.932;2024-03-22T00:38:28;15.50;;;7.67;;
32082;SDS011;18597;48.328;7.932;2024-03-22T00:40:54;7.57;;;6.87;;
32082;SDS011;18597;48.328;7.932;2024-03-22T00:43:20;9.00;;;7.27;;
32082;SDS011;18597;48.328;7.932;2024-03-22T00:45:46;12.43;;;7.20;;
32082;SDS011;18597;48.328;7.932;2024-03-22T00:48:12;10.87;;;7.80;;
32082;SDS011;18597;48.328;7.932;2024-03-22T00:50:38;10.00;;;7.33;;
32082;SDS011;18597;48.328;7.932;2024-03-22T00:53:04;7.63;;;6.87;;
32082;SDS011;18597;48.328;7.932;2024-03-22T00:55:31;11.10;;;6.63;;
32082;SDS011;18597;48.328;7.932;2024-03-22T00:57:57;7.50;;;6.87;;
32082;SDS011;18597;48.328;7.932;2024-03-22T01:00:23;8.53;;;7.10;;
32082;SDS011;18597;48.328;7.932;2024-03-22T01:02:49;7.17;;;6.50;;
32082;SDS011;18597;48.328;7.932;2024-03-22T01:05:16;11.20;;;7.93;;
32082;SDS011;18597;48.328;7.932;2024-03-22T01:07:42;9.17;;;6.03;;
32082;SDS011;18597;48.328;7.932;2024-03-22T01:10:08;11.80;;;6.87;;
32082;SDS011;18597;48.328;7.932;2024-03-22T01:12:35;8.97;;;7.20;;
32082;SDS011;18597;48.328;7.932;2024-03-22T01:15:01;7.60;;;6.43;;
32082;SDS011;18597;48.328;7.932;2024-03-22T01:17:28;7.20;;;6.47;;
32082;SDS011;18597;48.328;7.932;2024-03-22T01:19:54;7.60;;;5.97;;
32082;SDS011;18597;48.328;7.932;2024-03-22T01:22:19;6.70;;;5.53;;
32082;SDS011;18597;48.328;7.932;2024-03-22T01:24:45;6.80;;;6.20;;
32082;SDS011;18597;48.328;7.932;2024-03-22T01:27:11;8.53;;;6.43;;
32082;SDS011;18597;48.328;7.932;2024-03-22T01:29:37;6.43;;;5.83;;
32082;SDS011;18597;48.328;7.932;2024-03-22T01:32:03;17.37;;;9.00;;
32082;SDS011;18597;48.328;7.932;2024-03-22T01:34:29;10.63;;;8.17;;
32082;SDS011;18597;48.328;7.932;2024-03-22T01:36:55;14.17;;;7.20;;
32082;SDS011;18597;48.328;7.932;2024-03-22T01:39:21;9.23;;;8.37;;
32082;SDS011;18597;48.328;7.932;2024-03-22T01:41:48;7.23;;;6.53;;
32082;SDS011;18597;48.328;7.932;2024-03-22T01:44:15;8.53;;;7.73;;
32082;SDS011;18597;48.328;7.932;2024-03-22T01:46:42;8.43;;;7.60;;
32082;SDS011;18597;48.328;7.932;2024-03-22T01:49:09;7.17;;;6.43;;
32082;SDS011;18597;48.328;7.932;2024-03-22T01:51:39;8.10;;;7.40;;
32082;SDS011;18597;48.328;7.932;2024-03-22T01:54:05;11.67;;;8.47;;
32082;SDS011;18597;48.328;7.932;2024-03-22T01:56:36;8.10;;;7.40;;
32082;SDS011;18597;48.328;7.932;2024-03-22T01:59:04;11.00;;;7.73;;
32082;SDS011;18597;48.328;7.932;2024-03-22T02:01:31;9.30;;;6.53;;
32082;SDS011;18597;48.328;7.932;2024-03-22T02:03:57;7.43;;;6.83;;
32082;SDS011;18597;48.328;7.932;2024-03-22T02:06:23;7.43;;;6.70;;
32082;SDS011;18597;48.328;7.932;2024-03-22T02:08:49;8.13;;;7.40;;
32082;SDS011;18597;48.328;7.932;2024-03-22T02:11:15;9.77;;;6.50;;
32082;SDS011;18597;48.328;7.932;2024-03-22T02:13:41;10.77;;;6.60;;
32082;SDS011;18597;48.328;7.932;2024-03-22T02:16:08;7.60;;;6.80;;
32082;SDS011;18597;48.328;7.932;2024-03-22T02:18:34;7.20;;;6.70;;
32082;SDS011;18597;48.328;7.932;2024-03-22T02:21:00;12.40;;;7.47;;
32082;SDS011;18597;48.328;7.932;2024-03-22T02:23:34;8.10;;;6.90;;
32082;SDS011;18597;48.328;7.932;2024-03-22T02:26:01;19.97;;;7.50;;
32082;SDS011;18597;48.328;7.932;2024-03-22T02:28:28;9.40;;;6.60;;
32082;SDS011;18597;48.328;7.932;2024-03-22T02:30:55;10.20;;;8.23;;
32082;SDS011;18597;48.328;7.932;2024-03-22T02:33:21;7.23;;;6.50;;
32082;SDS011;18597;48.328;7.932;2024-03-22T02:35:47;7.03;;;6.30;;
32082;SDS011;18597;48.328;7.932;2024-03-22T02:38:14;8.53;;;6.50;;
32082;SDS011;18597;48.328;7.932;2024-03-22T02:40:42;8.17;;;7.10;;
32082;SDS011;18597;48.328;7.932;2024-03-22T02:43:09;15.17;;;7.13;;
32082;SDS011;18597;48.328;7.932;2024-03-22T02:45:36;7.73;;;6.43;;
32082;SDS011;18597;48.328;7.932;2024-03-22T02:48:02;8.17;;;7.13;;
32082;SDS011;18597;48.328;7.932;2024-03-22T02:50:32;7.00;;;6.40;;
32082;SDS011;18597;48.328;7.932;2024-03-22T02:52:59;9.27;;;6.20;;
32082;SDS011;18597;48.328;7.932;2024-03-22T02:55:25;8.73;;;7.03;;
32082;SDS011;18597;48.328;7.932;2024-03-22T02:57:51;8.03;;;7.23;;
32082;SDS011;18597;48.328;7.932;2024-03-22T03:00:17;10.37;;;6.93;;
32082;SDS011;18597;48.328;7.932;2024-03-22T03:02:43;8.07;;;7.23;;
32082;SDS011;18597;48.328;7.932;2024-03-22T03:05:10;7.90;;;6.47;;
32082;SDS011;18597;48.328;7.932;2024-03-22T03:07:36;9.03;;;7.00;;
32082;SDS011;18597;48.328;7.932;2024-03-22T03:10:02;9.70;;;7.20;;
32082;SDS011;18597;48.328;7.932;2024-03-22T03:12:28;9.63;;;7.50;;
32082;SDS011;18597;48.328;7.932;2024-03-22T03:14:54;7.27;;;6.70;;
32082;SDS011;18597;48.328;7.932;2024-03-22T03:17:20;13.93;;;6.87;;
32082;SDS011;18597;48.328;7.932;2024-03-22T03:19:46;8.27;;;6.33;;
32082;SDS011;18597;48.328;7.932;2024-03-22T03:22:13;8.53;;;7.30;;
32082;SDS011;18597;48.328;7.932;2024-03-22T03:24:38;8.07;;;7.27;;
32082;SDS011;18597;48.328;7.932;2024-03-22T03:27:04;7.13;;;6.53;;
32082;SDS011;18597;48.328;7.932;2024-03-22T03:29:30;12.10;;;7.90;;
32082;SDS011;18597;48.328;7.932;2024-03-22T03:31:56;6.77;;;6.20;;
32082;SDS011;18597;48.328;7.932;2024-03-22T03:34:22;8.03;;;6.77;;
32082;SDS011;18597;48.328;7.932;2024-03-22T03:36:47;7.33;;;6.60;;
32082;SDS011;18597;48.328;7.932;2024-03-22T03:39:13;6.80;;;6.20;;
32082;SDS011;18597;48.328;7.932;2024-03-22T03:41:39;7.60;;;6.30;;
32082;SDS011;18597;48.328;7.932;2024-03-22T03:44:05;8.07;;;6.00;;
32082;SDS011;18597;48.328;7.932;2024-03-22T03:46:31;7.90;;;7.10;;
32082;SDS011;18597;48.328;7.932;2024-03-22T03:48:56;13.80;;;7.77;;
32082;SDS011;18597;48.328;7.932;2024-03-22T03:51:22;6.60;;;6.00;;
32082;SDS011;18597;48.328;7.932;2024-03-22T03:53:48;7.30;;;6.10;;
32082;SDS011;18597;48.328;7.932;2024-03-22T03:56:14;9.23;;;6.17;;
32082;SDS011;18597;48.328;7.932;2024-03-22T03:58:40;13.30;;;7.50;;
32082;SDS011;18597;48.328;7.932;2024-03-22T04:01:06;7.53;;;6.60;;
32082;SDS011;18597;48.328;7.932;2024-03-22T04:03:33;7.57;;;6.87;;
32082;SDS011;18597;48.328;7.932;2024-03-22T04:05:59;11.70;;;7.53;;
32082;SDS011;18597;48.328;7.932;2024-03-22T04:08:25;11.80;;;7.03;;
32082;SDS011;18597;48.328;7.932;2024-03-22T04:10:52;12.13;;;8.00;;
32082;SDS011;18597;48.328;7.932;2024-03-22T04:13:21;8.47;;;7.60;;
32082;SDS011;18597;48.328;7.932;2024-03-22T04:15:51;10.00;;;7.77;;
32082;SDS011;18597;48.328;7.932;2024-03-22T04:18:18;7.43;;;6.73;;
32082;SDS011;18597;48.328;7.932;2024-03-22T04:20:53;6.87;;;6.27;;
32082;SDS011;18597;48.328;7.932;2024-03-22T04:23:21;9.83;;;8.00;;
32082;SDS011;18597;48.328;7.932;2024-03-22T04:25:52;10.30;;;6.83;;
32082;SDS011;18597;48.328;7.932;2024-03-22T04:28:20;9.50;;;7.53;;
32082;SDS011;18597;48.328;7.932;2024-03-22T04:30:54;9.87;;;6.23;;
32082;SDS011;18597;48.328;7.932;2024-03-22T04:33:30;11.30;;;7.20;;
32082;SDS011;18597;48.328;7.932;2024-03-22T04:35:57;8.63;;;7.73;;
32082;SDS011;18597;48.328;7.932;2024-03-22T04:38:24;15.03;;;7.57;;
32082;SDS011;18597;48.328;7.932;2024-03-22T04:40:59;8.77;;;6.97;;
32082;SDS011;18597;48.328;7.932;2024-03-22T04:43:26;9.40;;;7.60;;
32082;SDS011;18597;48.328;7.932;2024-03-22T04:45:53;11.43;;;7.20;;
32082;SDS011;18597;48.328;7.932;2024-03-22T04:48:19;11.10;;;7.50;;
32082;SDS011;18597;48.328;7.932;2024-03-22T04:50:47;7.13;;;6.53;;
32082;SDS011;18597;48.328;7.932;2024-03-22T04:53:15;14.33;;;7.80;;
32082;SDS011;18597;48.328;7.932;2024-03-22T04:55:43;8.50;;;7.73;;
32082;SDS011;18597;48.328;7.932;2024-03-22T04:58:12;9.43;;;7.37;;
32082;SDS011;18597;48.328;7.932;2024-03-22T05:00:40;12.00;;;8.73;;
32082;SDS011;18597;48.328;7.932;2024-03-22T05:03:07;10.43;;;7.53;;
32082;SDS011;18597;48.328;7.932;2024-03-22T05:05:33;9.73;;;7.70;;
32082;SDS011;18597;48.328;7.932;2024-03-22T05:08:00;10.87;;;7.73;;
32082;SDS011;18597;48.328;7.932;2024-03-22T05:10:27;12.70;;;7.73;;
32082;SDS011;18597;48.328;7.932;2024-03-22T05:12:55;10.37;;;8.63;;
32082;SDS011;18597;48.328;7.932;2024-03-22T05:15:21;13.00;;;8.43;;
32082;SDS011;18597;48.328;7.932;2024-03-22T05:17:48;12.40;;;8.13;;
32082;SDS011;18597;48.328;7.932;2024-03-22T05:20:14;13.43;;;8.73;;
32082;SDS011;18597;48.328;7.932;2024-03-22T05:22:41;8.53;;;7.37;;
32082;SDS011;18597;48.328;7.932;2024-03-22T05:25:07;12.73;;;8.73;;
32082;SDS011;18597;48.328;7.932;2024-03-22T05:27:34;10.13;;;8.47;;
32082;SDS011;18597;48.328;7.932;2024-03-22T05:30:00;14.43;;;7.93;;
32082;SDS011;18597;48.328;7.932;2024-03-22T05:32:26;11.07;;;7.93;;
32082;SDS011;18597;48.328;7.932;2024-03-22T05:34:52;10.87;;;8.70;;
32082;SDS011;18597;48.328;7.932;2024-03-22T05:37:18;11.27;;;8.37;;
32082;SDS011;18597;48.328;7.932;2024-03-22T05:39:45;9.40;;;8.50;;
32082;SDS011;18597;48.328;7.932;2024-03-22T05:42:10;11.30;;;7.90;;
32082;SDS011;18597;48.328;7.932;2024-03-22T05:44:36;11.60;;;9.00;;
32082;SDS011;18597;48.328;7.932;2024-03-22T05:47:02;11.87;;;8.60;;
32082;SDS011;18597;48.328;7.932;2024-03-22T05:49:28;18.33;;;8.70;;
32082;SDS011;18597;48.328;7.932;2024-03-22T05:51:54;9.70;;;8.70;;
32082;SDS011;18597;48.328;7.932;2024-03-22T05:54:20;14.27;;;8.80;;
32082;SDS011;18597;48.328;7.932;2024-03-22T05:56:46;13.90;;;9.83;;
32082;SDS011;18597;48.328;7.932;2024-03-22T05:59:12;21.07;;;9.73;;
32082;SDS011;18597;48.328;7.932;2024-03-22T06:01:38;19.17;;;10.90;;
32082;SDS011;18597;48.328;7.932;2024-03-22T06:04:04;15.90;;;10.33;;
32082;SDS011;18597;48.328;7.932;2024-03-22T06:06:32;11.97;;;9.90;;
32082;SDS011;18597;48.328;7.932;2024-03-22T06:08:59;12.20;;;9.40;;
32082;SDS011;18597;48.328;7.932;2024-03-22T06:11:28;16.23;;;9.10;;
32082;SDS011;18597;48.328;7.932;2024-03-22T06:13:55;10.03;;;9.03;;
32082;SDS011;18597;48.328;7.932;2024-03-22T06:16:21;8.77;;;7.47;;
32082;SDS011;18597;48.328;7.932;2024-03-22T06:18:47;9.37;;;8.07;;
32082;SDS011;18597;48.328;7.932;2024-03-22T06:21:13;12.33;;;8.33;;
32082;SDS011;18597;48.328;7.932;2024-03-22T06:23:40;8.90;;;6.87;;
32082;SDS011;18597;48.328;7.932;2024-03-22T06:26:07;11.87;;;7.43;;
32082;SDS011;18597;48.328;7.932;2024-03-22T06:28:33;6.73;;;6.03;;
32082;SDS011;18597;48.328;7.932;2024-03-22T06:30:58;6.27;;;5.43;;
32082;SDS011;18597;48.328;7.932;2024-03-22T06:33:24;9.20;;;5.17;;
32082;SDS011;18597;48.328;7.932;2024-03-22T06:35:50;6.37;;;5.77;;
32082;SDS011;18597;48.328;7.932;2024-03-22T06:38:16;7.67;;;5.63;;
32082;SDS011;18597;48.328;7.932;2024-03-22T06:40:41;4.80;;;4.47;;
32082;SDS011;18597;48.328;7.932;2024-03-22T06:43:07;5.80;;;5.30;;
32082;SDS011;18597;48.328;7.932;2024-03-22T06:45:34;11.60;;;4.90;;
32082;SDS011;18597;48.328;7.932;2024-03-22T06:47:59;9.17;;;6.23;;
32082;SDS011;18597;48.328;7.932;2024-03-22T06:50:25;6.53;;;6.03;;
32082;SDS011;18597;48.328;7.932;2024-03-22T06:52:51;4.70;;;4.50;;
32082;SDS011;18597;48.328;7.932;2024-03-22T06:55:18;5.20;;;4.90;;
32082;SDS011;18597;48.328;7.932;2024-03-22T06:57:46;5.53;;;4.43;;
32082;SDS011;18597;48.328;7.932;2024-03-22T07:00:13;4.67;;;4.40;;
32082;SDS011;18597;48.328;7.932;2024-03-22T07:02:40;3.70;;;3.50;;
32082;SDS011;18597;48.328;7.932;2024-03-22T07:05:06;4.60;;;4.13;;
32082;SDS011;18597;48.328;7.932;2024-03-22T07:07:33;4.13;;;3.83;;
32082;SDS011;18597;48.328;7.932;2024-03-22T07:10:00;8.03;;;4.53;;
32082;SDS011;18597;48.328;7.932;2024-03-22T07:12:27;4.20;;;4.00;;
32082;SDS011;18597;48.328;7.932;2024-03-22T07:14:53;5.50;;;4.67;;
32082;SDS011;18597;48.328;7.932;2024-03-22T07:17:21;4.60;;;4.30;;
32082;SDS011;18597;48.328;7.932;2024-03-22T07:19:50;5.30;;;4.80;;
32082;SDS011;18597;48.328;7.932;2024-03-22T07:22:17;6.47;;;4.37;;
32082;SDS011;18597;48.328;7.932;2024-03-22T07:24:43;5.23;;;4.73;;
32082;SDS011;18597;48.328;7.932;2024-03-22T07:27:10;4.97;;;4.53;;
32082;SDS011;18597;48.328;7.932;2024-03-22T07:29:37;5.30;;;4.90;;
32082;SDS011;18597;48.328;7.932;2024-03-22T07:32:03;4.63;;;4.33;;
32082;SDS011;18597;48.328;7.932;2024-03-22T07:34:29;5.10;;;4.70;;
32082;SDS011;18597;48.328;7.932;2024-03-22T07:36:55;6.07;;;5.50;;
32082;SDS011;18597;48.328;7.932;2024-03-22T07:39:21;5.27;;;4.97;;
32082;SDS011;18597;48.328;7.932;2024-03-22T07:41:47;5.97;;;5.37;;
32082;SDS011;18597;48.328;7.932;2024-03-22T07:44:12;5.80;;;4.03;;
32082;SDS011;18597;48.328;7.932;2024-03-22T07:46:38;4.43;;;4.13;;
32082;SDS011;18597;48.328;7.932;2024-03-22T07:49:04;7.33;;;4.10;;
32082;SDS011;18597;48.328;7.932;2024-03-22T07:51:30;5.10;;;4.00;;
32082;SDS011;18597;48.328;7.932;2024-03-22T07:53:56;6.23;;;3.97;;
32082;SDS011;18597;48.328;7.932;2024-03-22T07:56:22;5.67;;;3.83;;
32082;SDS011;18597;48.328;7.932;2024-03-22T07:58:48;4.00;;;3.70;;
32082;SDS011;18597;48.328;7.932;2024-03-22T08:01:14;3.53;;;3.30;;
32082;SDS011;18597;48.328;7.932;2024-03-22T08:03:41;5.43;;;3.90;;
32082;SDS011;18597;48.328;7.932;2024-03-22T08:06:07;5.33;;;4.00;;
32082;SDS011;18597;48.328;7.932;2024-03-22T08:08:33;4.30;;;3.90;;
32082;SDS011;18597;48.328;7.932;2024-03-22T08:10:59;4.33;;;4.13;;
32082;SDS011;18597;48.328;7.932;2024-03-22T08:13:24;6.73;;;3.80;;
32082;SDS011;18597;48.328;7.932;2024-03-22T08:15:50;3.90;;;3.60;;
32082;SDS011;18597;48.328;7.932;2024-03-22T08:18:16;5.60;;;3.50;;
32082;SDS011;18597;48.328;7.932;2024-03-22T08:20:42;4.47;;;4.03;;
32082;SDS011;18597;48.328;7.932;2024-03-22T08:23:08;3.80;;;3.60;;
32082;SDS011;18597;48.328;7.932;2024-03-22T08:25:33;4.47;;;4.10;;
32082;SDS011;18597;48.328;7.932;2024-03-22T08:27:59;4.20;;;3.97;;
32082;SDS011;18597;48.328;7.932;2024-03-22T08:30:25;3.93;;;3.70;;
32082;SDS011;18597;48.328;7.932;2024-03-22T08:32:51;4.80;;;4.40;;
32082;SDS011;18597;48.328;7.932;2024-03-22T08:35:17;5.17;;;4.43;;
32082;SDS011;18597;48.328;7.932;2024-03-22T08:37:43;5.80;;;5.40;;
32082;SDS011;18597;48.328;7.932;2024-03-22T08:40:09;6.73;;;6.03;;
32082;SDS011;18597;48.328;7.932;2024-03-22T08:42:36;8.33;;;5.63;;
32082;SDS011;18597;48.328;7.932;2024-03-22T08:45:04;10.57;;;6.90;;
32082;SDS011;18597;48.328;7.932;2024-03-22T08:47:34;6.67;;;5.83;;
32082;SDS011;18597;48.328;7.932;2024-03-22T08:50:00;12.03;;;6.40;;
32082;SDS011;18597;48.328;7.932;2024-03-22T08:52:25;5.87;;;5.33;;
32082;SDS011;18597;48.328;7.932;2024-03-22T08:54:52;5.83;;;5.30;;
32082;SDS011;18597;48.328;7.932;2024-03-22T08:57:18;5.13;;;4.70;;
32082;SDS011;18597;48.328;7.932;2024-03-22T08:59:44;5.20;;;4.70;;
32082;SDS011;18597;48.328;7.932;2024-03-22T09:02:10;7.07;;;5.83;;
32082;SDS011;18597;48.328;7.932;2024-03-22T09:04:36;6.13;;;5.53;;
32082;SDS011;18597;48.328;7.932;2024-03-22T09:07:03;16.33;;;14.33;;
32082;SDS011;18597;48.328;7.932;2024-03-22T09:09:29;21.37;;;12.13;;
32082;SDS011;18597;48.328;7.932;2024-03-22T09:11:55;5.93;;;5.30;;
32082;SDS011;18597;48.328;7.932;2024-03-22T09:14:21;21.93;;;11.70;;
32082;SDS011;18597;48.328;7.932;2024-03-22T09:16:47;9.27;;;5.20;;
32082;SDS011;18597;48.328;7.932;2024-03-22T09:19:12;5.27;;;4.87;;
32082;SDS011;18597;48.328;7.932;2024-03-22T09:21:38;5.90;;;5.17;;
32082;SDS011;18597;48.328;7.932;2024-03-22T09:24:04;5.43;;;4.90;;
32082;SDS011;18597;48.328;7.932;2024-03-22T09:26:31;4.93;;;4.37;;
32082;SDS011;18597;48.328;7.932;2024-03-22T09:28:58;5.13;;;4.63;;
32082;SDS011;18597;48.328;7.932;2024-03-22T09:31:24;4.90;;;4.50;;
32082;SDS011;18597;48.328;7.932;2024-03-22T09:33:50;6.30;;;5.43;;
32082;SDS011;18597;48.328;7.932;2024-03-22T09:36:16;4.20;;;3.80;;
32082;SDS011;18597;48.328;7.932;2024-03-22T09:38:42;4.50;;;4.10;;
32082;SDS011;18597;48.328;7.932;2024-03-22T09:41:07;4.13;;;3.60;;
32082;SDS011;18597;48.328;7.932;2024-03-22T09:43:33;4.70;;;4.10;;
32082;SDS011;18597;48.328;7.932;2024-03-22T09:46:01;3.83;;;3.47;;
32082;SDS011;18597;48.328;7.932;2024-03-22T09:48:27;5.73;;;3.77;;
32082;SDS011;18597;48.328;7.932;2024-03-22T09:50:54;7.10;;;4.50;;
32082;SDS011;18597;48.328;7.932;2024-03-22T09:53:20;3.57;;;2.70;;
32082;SDS011;18597;48.328;7.932;2024-03-22T09:55:48;9.13;;;3.70;;
32082;SDS011;18597;48.328;7.932;2024-03-22T09:58:15;5.33;;;2.83;;
32082;SDS011;18597;48.328;7.932;2024-03-22T10:00:42;4.53;;;3.00;;
32082;SDS011;18597;48.328;7.932;2024-03-22T10:03:09;9.77;;;3.00;;
32082;SDS011;18597;48.328;7.932;2024-03-22T10:05:36;4.50;;;2.90;;
32082;SDS011;18597;48.328;7.932;2024-03-22T10:08:03;2.77;;;2.53;;
32082;SDS011;18597;48.328;7.932;2024-03-22T10:10:31;3.37;;;3.20;;
32082;SDS011;18597;48.328;7.932;2024-03-22T10:13:00;4.00;;;2.80;;
32082;SDS011;18597;48.328;7.932;2024-03-22T10:15:26;2.90;;;2.70;;
32082;SDS011;18597;48.328;7.932;2024-03-22T10:17:52;3.63;;;3.33;;
32082;SDS011;18597;48.328;7.932;2024-03-22T10:20:21;2.70;;;2.50;;
32082;SDS011;18597;48.328;7.932;2024-03-22T10:23:02;8.20;;;3.20;;
32082;SDS011;18597;48.328;7.932;2024-03-22T10:25:28;6.37;;;2.43;;
32082;SDS011;18597;48.328;7.932;2024-03-22T10:27:55;8.63;;;3.50;;
32082;SDS011;18597;48.328;7.932;2024-03-22T10:30:22;3.43;;;3.13;;
32082;SDS011;18597;48.328;7.932;2024-03-22T10:32:49;2.93;;;2.10;;
32082;SDS011;18597;48.328;7.932;2024-03-22T10:35:16;7.43;;;4.47;;
32082;SDS011;18597;48.328;7.932;2024-03-22T10:37:42;5.40;;;2.70;;
32082;SDS011;18597;48.328;7.932;2024-03-22T10:40:08;2.37;;;2.27;;
32082;SDS011;18597;48.328;7.932;2024-03-22T10:42:36;2.80;;;2.70;;
32082;SDS011;18597;48.328;7.932;2024-03-22T10:45:05;2.17;;;2.07;;
32082;SDS011;18597;48.328;7.932;2024-03-22T10:47:35;2.50;;;2.33;;
32082;SDS011;18597;48.328;7.932;2024-03-22T10:50:06;2.03;;;1.90;;
32082;SDS011;18597;48.328;7.932;2024-03-22T10:52:51;3.23;;;2.07;;
32082;SDS011;18597;48.328;7.932;2024-03-22T10:55:30;1.80;;;1.80;;
32082;SDS011;18597;48.328;7.932;2024-03-22T10:57:59;2.40;;;1.77;;
32082;SDS011;18597;48.328;7.932;2024-03-22T11:00:29;1.67;;;1.47;;
32082;SDS011;18597;48.328;7.932;2024-03-22T11:02:56;1.53;;;1.43;;
32082;SDS011;18597;48.328;7.932;2024-03-22T11:05:22;2.13;;;1.90;;
32082;SDS011;18597;48.328;7.932;2024-03-22T11:07:58;7.60;;;1.87;;
32082;SDS011;18597;48.328;7.932;2024-03-22T11:10:34;2.63;;;1.83;;
32082;SDS011;18597;48.328;7.932;2024-03-22T11:13:02;2.00;;;1.90;;
32082;SDS011;18597;48.328;7.932;2024-03-22T11:15:29;1.70;;;1.60;;
32082;SDS011;18597;48.328;7.932;2024-03-22T11:17:56;2.13;;;1.90;;
32082;SDS011;18597;48.328;7.932;2024-03-22T11:20:23;3.60;;;1.80;;
32082;SDS011;18597;48.328;7.932;2024-03-22T11:22:49;5.40;;;2.23;;
32082;SDS011;18597;48.328;7.932;2024-03-22T11:25:16;1.53;;;1.50;;
32082;SDS011;18597;48.328;7.932;2024-03-22T11:27:44;2.57;;;2.47;;
32082;SDS011;18597;48.328;7.932;2024-03-22T11:30:10;1.80;;;1.70;;
32082;SDS011;18597;48.328;7.932;2024-03-22T11:32:36;1.93;;;1.80;;
32082;SDS011;18597;48.328;7.932;2024-03-22T11:35:10;4.40;;;1.60;;
32082;SDS011;18597;48.328;7.932;2024-03-22T11:37:38;1.43;;;1.43;;
32082;SDS011;18597;48.328;7.932;2024-03-22T11:40:06;1.27;;;1.27;;
32082;SDS011;18597;48.328;7.932;2024-03-22T11:42:36;1.40;;;1.40;;
32082;SDS011;18597;48.328;7.932;2024-03-22T11:45:05;5.10;;;1.50;;
32082;SDS011;18597;48.328;7.932;2024-03-22T11:47:34;3.53;;;1.73;;
32082;SDS011;18597;48.328;7.932;2024-03-22T11:50:01;1.50;;;1.40;;
32082;SDS011;18597;48.328;7.932;2024-03-22T11:52:27;1.40;;;1.40;;
32082;SDS011;18597;48.328;7.932;2024-03-22T11:54:54;1.27;;;1.27;;
32082;SDS011;18597;48.328;7.932;2024-03-22T11:57:21;1.17;;;1.17;;
32082;SDS011;18597;48.328;7.932;2024-03-22T11:59:47;1.10;;;0.83;;
32082;SDS011;18597;48.328;7.932;2024-03-22T12:02:13;1.20;;;1.20;;
32082;SDS011;18597;48.328;7.932;2024-03-22T12:04:40;2.63;;;2.43;;
32082;SDS011;18597;48.328;7.932;2024-03-22T12:07:10;1.90;;;1.80;;
32082;SDS011;18597;48.328;7.932;2024-03-22T12:09:37;1.90;;;1.80;;
32082;SDS011;18597;48.328;7.932;2024-03-22T12:12:03;1.73;;;1.63;;
32082;SDS011;18597;48.328;7.932;2024-03-22T12:14:31;5.50;;;2.00;;
32082;SDS011;18597;48.328;7.932;2024-03-22T12:16:57;1.87;;;1.77;;
32082;SDS011;18597;48.328;7.932;2024-03-22T12:19:23;6.10;;;1.30;;
32082;SDS011;18597;48.328;7.932;2024-03-22T12:21:49;2.13;;;1.90;;
32082;SDS011;18597;48.328;7.932;2024-03-22T12:24:15;1.70;;;1.13;;
32082;SDS011;18597;48.328;7.932;2024-03-22T12:26:41;1.97;;;1.87;;
32082;SDS011;18597;48.328;7.932;2024-03-22T12:29:07;1.50;;;1.50;;
32082;SDS011;18597;48.328;7.932;2024-03-22T12:31:35;2.10;;;1.17;;
32082;SDS011;18597;48.328;7.932;2024-03-22T12:34:03;2.30;;;1.10;;
32082;SDS011;18597;48.328;7.932;2024-03-22T12:36:29;1.93;;;1.60;;
32082;SDS011;18597;48.328;7.932;2024-03-22T12:38:54;1.50;;;1.47;;
32082;SDS011;18597;48.328;7.932;2024-03-22T12:41:20;1.10;;;1.10;;
32082;SDS011;18597;48.328;7.932;2024-03-22T12:43:46;1.17;;;1.17;;
32082;SDS011;18597;48.328;7.932;2024-03-22T12:46:12;1.30;;;1.20;;
32082;SDS011;18597;48.328;7.932;2024-03-22T12:48:38;3.60;;;1.60;;
32082;SDS011;18597;48.328;7.932;2024-03-22T12:51:03;9.20;;;1.90;;
32082;SDS011;18597;48.328;7.932;2024-03-22T12:53:29;1.80;;;1.70;;
32082;SDS011;18597;48.328;7.932;2024-03-22T12:55:55;2.10;;;1.73;;
32082;SDS011;18597;48.328;7.932;2024-03-22T12:58:21;2.10;;;2.10;;
32082;SDS011;18597;48.328;7.932;2024-03-22T13:00:47;2.60;;;1.77;;
32082;SDS011;18597;48.328;7.932;2024-03-22T13:03:13;2.00;;;1.90;;
32082;SDS011;18597;48.328;7.932;2024-03-22T13:05:40;2.97;;;2.77;;
32082;SDS011;18597;48.328;7.932;2024-03-22T13:08:07;2.80;;;1.30;;
32082;SDS011;18597;48.328;7.932;2024-03-22T13:10:33;1.40;;;1.30;;
32082;SDS011;18597;48.328;7.932;2024-03-22T13:12:59;1.57;;;1.57;;
32082;SDS011;18597;48.328;7.932;2024-03-22T13:15:24;2.60;;;1.87;;
32082;SDS011;18597;48.328;7.932;2024-03-22T13:17:51;2.20;;;1.57;;
32082;SDS011;18597;48.328;7.932;2024-03-22T13:20:20;1.57;;;1.57;;
32082;SDS011;18597;48.328;7.932;2024-03-22T13:22:45;4.53;;;1.90;;
32082;SDS011;18597;48.328;7.932;2024-03-22T13:25:11;3.53;;;2.00;;
32082;SDS011;18597;48.328;7.932;2024-03-22T13:27:37;3.33;;;2.40;;
32082;SDS011;18597;48.328;7.932;2024-03-22T13:30:04;1.67;;;1.57;;
32082;SDS011;18597;48.328;7.932;2024-03-22T13:32:35;1.93;;;1.43;;
32082;SDS011;18597;48.328;7.932;2024-03-22T13:35:02;1.67;;;1.67;;
32082;SDS011;18597;48.328;7.932;2024-03-22T13:37:29;3.30;;;2.07;;
32082;SDS011;18597;48.328;7.932;2024-03-22T13:39:54;4.30;;;1.63;;
32082;SDS011;18597;48.328;7.932;2024-03-22T13:42:20;1.80;;;1.70;;
32082;SDS011;18597;48.328;7.932;2024-03-22T13:44:46;2.50;;;1.67;;
32082;SDS011;18597;48.328;7.932;2024-03-22T13:47:12;2.30;;;2.10;;
32082;SDS011;18597;48.328;7.932;2024-03-22T13:49:37;3.47;;;2.33;;
32082;SDS011;18597;48.328;7.932;2024-03-22T13:52:06;1.53;;;1.53;;
32082;SDS011;18597;48.328;7.932;2024-03-22T13:54:32;3.30;;;1.43;;
32082;SDS011;18597;48.328;7.932;2024-03-22T13:56:58;1.63;;;1.63;;
32082;SDS011;18597;48.328;7.932;2024-03-22T13:59:25;4.67;;;1.70;;
32082;SDS011;18597;48.328;7.932;2024-03-22T14:01:52;1.67;;;1.57;;
32082;SDS011;18597;48.328;7.932;2024-03-22T14:04:18;2.40;;;1.87;;
32082;SDS011;18597;48.328;7.932;2024-03-22T14:06:45;1.37;;;1.27;;
32082;SDS011;18597;48.328;7.932;2024-03-22T14:09:11;1.80;;;1.70;;
32082;SDS011;18597;48.328;7.932;2024-03-22T14:11:38;3.13;;;1.67;;
32082;SDS011;18597;48.328;7.932;2024-03-22T14:14:04;2.80;;;1.77;;
32082;SDS011;18597;48.328;7.932;2024-03-22T14:16:30;2.03;;;1.90;;
32082;SDS011;18597;48.328;7.932;2024-03-22T14:18:56;1.80;;;1.80;;
32082;SDS011;18597;48.328;7.932;2024-03-22T14:21:22;1.73;;;1.63;;
32082;SDS011;18597;48.328;7.932;2024-03-22T14:23:48;3.40;;;1.97;;
32082;SDS011;18597;48.328;7.932;2024-03-22T14:26:15;4.90;;;1.93;;
32082;SDS011;18597;48.328;7.932;2024-03-22T14:28:42;2.73;;;1.63;;
32082;SDS011;18597;48.328;7.932;2024-03-22T14:31:09;6.50;;;2.30;;
32082;SDS011;18597;48.328;7.932;2024-03-22T14:33:36;2.77;;;2.40;;
32082;SDS011;18597;48.328;7.932;2024-03-22T14:36:03;1.97;;;1.80;;
32082;SDS011;18597;48.328;7.932;2024-03-22T14:38:31;2.53;;;1.70;;
32082;SDS011;18597;48.328;7.932;2024-03-22T14:40:57;18.87;;;14.53;;
32082;SDS011;18597;48.328;7.932;2024-03-22T14:43:24;12.07;;;6.43;;